Time;durP1;ratioP1;P1;durP2;ratioP2;P2;SDS_P1;SDS_P2;PMS_P1;PMS_P2;Temp;Humidity;BMP_temperature;BMP_pressure;BME280_temperature;BME280_humidity;BME280_pressure;Samples;Min_cycle;Max_cycle;Signal;HPM_P1;HPM_P2
2022/04/26 03:37:06;;;;;;;7.73;6.97;;;6.20;1.00;;;;;;5117228;27;20458;-56
2022/04/26 03:39:32;;;;;;;11.20;7.00;;;6.20;1.00;;;;;;5120525;27;21303;-56
2022/04/26 03:41:59;;;;;;;7.67;6.90;;;;;;;;;;5119829;27;20186;-57
2022/04/26 03:44:24;;;;;;;8.47;6.63;;;6.10;1.00;;;;;;5119901;27;20451;-56
2022/04/26 03:46:57;;;;;;;7.33;6.63;;;;;;;;;;5119741;27;20567;-56
2022/04/26 03:49:23;;;;;;;7.87;6.23;;;6.10;1.00;;;;;;5100823;27;20213;-54
2022/04/26 03:51:52;;;;;;;7.00;6.30;;;6.10;1.00;;;;;;5123345;27;20447;-56
2022/04/26 03:54:18;;;;;;;6.70;5.97;;;5.90;1.00;;;;;;5117214;27;20561;-53
2022/04/26 03:56:43;;;;;;;7.10;6.40;;;6.10;1.00;;;;;;5119073;27;20923;-54
2022/04/26 03:59:09;;;;;;;6.83;6.13;;;6.00;1.00;;;;;;5121715;27;20457;-55
2022/04/26 04:01:34;;;;;;;6.83;6.13;;;6.00;1.00;;;;;;5118830;27;20185;-56
2022/04/26 04:04:00;;;;;;;8.90;6.93;;;6.00;1.00;;;;;;5115990;27;20193;-56
2022/04/26 04:06:25;;;;;;;7.37;6.67;;;6.00;1.00;;;;;;5112552;27;20201;-56
2022/04/26 04:08:51;;;;;;;7.30;6.60;;;;;;;;;;5121252;27;20185;-56
2022/04/26 04:11:17;;;;;;;7.20;6.50;;;6.00;1.00;;;;;;5118144;27;20209;-56
2022/04/26 04:13:42;;;;;;;7.03;6.20;;;6.00;1.00;;;;;;5121347;27;21187;-56
2022/04/26 04:16:08;;;;;;;9.40;6.50;;;6.00;1.00;;;;;;5122616;27;20269;-53
2022/04/26 04:21:19;;;;;;;8.53;6.90;;;5.90;1.00;;;;;;5117718;27;20193;-56
2022/04/26 04:23:45;;;;;;;10.93;6.43;;;5.80;1.00;;;;;;5118203;27;20442;-56
2022/04/26 04:26:10;;;;;;;8.43;6.57;;;5.90;1.00;;;;;;5118896;27;20783;-55
2022/04/26 04:28:36;;;;;;;8.77;6.87;;;5.90;1.00;;;;;;5120993;27;20657;-56
2022/04/26 04:31:06;;;;;;;8.53;7.53;;;6.00;1.00;;;;;;5120782;27;20229;-56
2022/04/26 04:33:31;;;;;;;10.67;8.20;;;6.10;1.00;;;;;;5118562;27;20487;-54
2022/04/26 04:35:57;;;;;;;11.60;8.60;;;6.10;1.00;;;;;;5122148;27;21023;-55
2022/04/26 04:38:23;;;;;;;9.97;7.93;;;6.10;1.00;;;;;;5121325;27;20205;-59
2022/04/26 04:40:48;;;;;;;10.27;8.30;;;6.10;1.00;;;;;;5118444;27;20193;-55
2022/04/26 04:43:14;;;;;;;10.13;8.17;;;6.10;1.00;;;;;;5123176;28;20270;-57
2022/04/26 04:45:40;;;;;;;9.13;7.77;;;6.20;1.00;;;;;;5125759;27;20189;-55
2022/04/26 04:48:06;;;;;;;8.50;7.70;;;6.20;1.00;;;;;;5122899;28;20228;-56
2022/04/26 04:50:35;;;;;;;10.43;8.47;;;6.40;1.00;;;;;;5121471;28;20462;-55
2022/04/26 04:53:01;;;;;;;10.10;7.60;;;6.50;1.00;;;;;;5123295;28;20470;-57
2022/04/26 04:55:27;;;;;;;9.50;7.77;;;6.50;1.00;;;;;;5120982;27;20444;-56
2022/04/26 04:57:52;;;;;;;8.80;7.70;;;6.80;1.00;;;;;;5121253;28;20213;-57
2022/04/26 05:00:18;;;;;;;7.47;6.77;;;6.80;1.00;;;;;;5119415;28;20165;-57
2022/04/26 05:02:44;;;;;;;10.23;9.33;;;6.80;1.00;;;;;;5119954;28;20181;-57
2022/04/26 05:05:10;;;;;;;8.13;7.03;;;6.90;1.00;;;;;;5118164;28;20197;-55
2022/04/26 05:07:36;;;;;;;10.87;7.60;;;6.90;1.00;;;;;;5119610;28;20228;-55
2022/04/26 05:10:03;;;;;;;8.50;7.60;;;6.90;1.00;;;;;;5116685;28;20446;-55
2022/04/26 05:12:28;;;;;;;7.20;6.50;;;6.90;1.00;;;;;;5116939;28;20950;-55
2022/04/26 05:14:54;;;;;;;7.50;6.40;;;6.90;1.00;;;;;;5120814;28;20471;-56
2022/04/26 05:17:19;;;;;;;9.87;6.63;;;6.90;1.00;;;;;;5103801;28;20186;-53
2022/04/26 05:19:45;;;;;;;8.53;6.57;;;7.00;1.00;;;;;;5124313;28;20265;-53
2022/04/26 05:22:10;;;;;;;7.10;6.40;;;6.90;1.00;;;;;;5121696;28;20193;-54
2022/04/26 05:24:58;;;;;;;7.13;6.43;;;7.10;1.00;;;;;;5117288;28;20193;-56
2022/04/26 05:27:29;;;;;;;7.47;6.73;;;7.30;1.00;;;;;;5126137;28;20278;-56
2022/04/26 05:29:56;;;;;;;7.10;6.40;;;7.10;1.00;;;;;;5121269;28;21030;-55
2022/04/26 05:32:24;;;;;;;7.30;6.00;;;7.20;1.00;;;;;;5119557;28;20485;-55
2022/04/26 05:35:00;;;;;;;9.27;7.90;;;7.30;1.00;;;;;;5120101;28;20466;-53
2022/04/26 05:37:27;;;;;;;9.57;7.67;;;7.20;1.00;;;;;;5117450;28;20450;-55
2022/04/26 05:39:53;;;;;;;9.03;7.23;;;7.30;1.00;;;;;;5117110;28;20456;-54
2022/04/26 05:42:18;;;;;;;7.63;6.87;;;7.30;1.00;;;;;;5119521;28;20801;-55
2022/04/26 05:44:44;;;;;;;8.90;7.40;;;7.30;1.00;;;;;;5116768;28;20614;-55
2022/04/26 05:47:09;;;;;;;8.17;6.67;;;7.30;1.00;;;;;;5118940;28;20731;-56
2022/04/26 05:49:36;;;;;;;8.83;7.83;;;7.40;1.00;;;;;;5114465;28;20546;-56
2022/04/26 05:52:03;;;;;;;9.20;7.73;;;7.50;1.00;;;;;;5119438;28;20703;-56
2022/04/26 05:54:28;;;;;;;13.30;8.77;;;7.50;1.00;;;;;;5121427;28;20475;-55
2022/04/26 05:56:54;;;;;;;8.63;7.80;;;7.60;1.00;;;;;;5121187;27;20484;-55
2022/04/26 05:59:21;;;;;;;9.10;8.27;;;7.70;1.00;;;;;;5100297;27;20201;-57
2022/04/26 06:01:47;;;;;;;8.83;7.60;;;7.80;1.00;;;;;;5117306;27;20447;-53
2022/04/26 06:04:13;;;;;;;9.00;7.63;;;10.70;1.00;;;;;;5101429;27;20517;-55
2022/04/26 06:06:38;;;;;;;9.80;8.30;;;8.20;1.00;;;;;;5121274;27;20840;-55
2022/04/26 06:09:04;;;;;;;12.03;8.00;;;8.30;1.00;;;;;;5120581;27;20234;-53
2022/04/26 06:11:30;;;;;;;14.03;8.90;;;8.40;1.00;;;;;;5119571;27;20189;-55
2022/04/26 06:13:56;;;;;;;12.93;8.33;;;8.40;1.00;;;;;;5122229;27;20551;-53
2022/04/26 06:16:21;;;;;;;10.90;8.00;;;8.40;1.00;;;;;;5122299;27;20547;-52
2022/04/26 06:18:47;;;;;;;11.40;9.47;;;8.40;1.00;;;;;;5126522;27;20230;-53
2022/04/26 06:21:13;;;;;;;10.50;8.80;;;8.40;1.00;;;;;;5119665;27;21326;-55
2022/04/26 06:23:39;;;;;;;12.27;9.33;;;8.40;1.00;;;;;;5124882;27;20717;-56
2022/04/26 06:26:05;;;;;;;11.37;8.80;;;9.50;1.00;;;;;;5124465;27;20494;-57
2022/04/26 06:28:30;;;;;;;10.00;9.00;;;8.80;1.00;;;;;;5102322;27;20458;-54
2022/04/26 06:30:56;;;;;;;11.77;10.57;;;9.00;1.00;;;;;;5121460;27;20193;-54
2022/04/26 06:33:22;;;;;;;11.40;10.20;;;9.20;1.00;;;;;;5103727;27;20257;-56
2022/04/26 06:35:47;;;;;;;12.20;9.50;;;9.30;1.00;;;;;;5125989;27;20182;-55
2022/04/26 06:38:14;;;;;;;11.13;9.93;;;9.40;1.00;;;;;;5118452;27;20447;-56
2022/04/26 06:40:39;;;;;;;11.67;10.47;;;9.50;1.00;;;;;;5121237;27;20265;-54
2022/04/26 06:43:05;;;;;;;12.13;8.93;;;9.80;1.00;;;;;;5118998;27;21249;-55
2022/04/26 06:45:30;;;;;;;13.47;9.40;;;10.10;1.00;;;;;;5104922;27;20188;-56
2022/04/26 06:47:56;;;;;;;12.40;10.10;;;10.10;1.00;;;;;;5122826;27;20189;-54
2022/04/26 06:50:22;;;;;;;10.60;9.20;;;10.30;1.00;;;;;;5124447;27;20634;-56
2022/04/26 06:52:48;;;;;;;10.20;9.10;;;10.50;1.00;;;;;;5123328;27;20189;-56
2022/04/26 06:55:14;;;;;;;10.40;9.00;;;10.60;1.00;;;;;;5121197;27;20535;-56
2022/04/26 06:57:40;;;;;;;10.67;9.67;;;10.70;1.00;;;;;;5124488;27;20238;-56
2022/04/26 07:00:07;;;;;;;10.40;9.30;;;10.80;1.00;;;;;;5120435;27;20439;-57
2022/04/26 07:02:33;;;;;;;10.53;9.03;;;10.90;1.00;;;;;;5123146;27;21446;-56
2022/04/26 07:04:59;;;;;;;13.67;10.20;;;11.10;1.00;;;;;;5122201;27;20448;-55
2022/04/26 07:07:25;;;;;;;11.53;10.00;;;11.10;1.00;;;;;;5127545;27;20446;-55
2022/04/26 07:09:50;;;;;;;12.30;10.77;;;11.10;1.00;;;;;;5125812;27;20440;-57
2022/04/26 07:12:16;;;;;;;14.30;9.90;;;12.50;1.00;;;;;;5118293;27;20202;-57
2022/04/26 07:14:42;;;;;;;10.83;9.73;;;11.60;1.00;;;;;;5121836;27;20209;-56
2022/04/26 07:17:08;;;;;;;13.10;9.50;;;11.30;1.00;;;;;;5121768;27;20718;-56
2022/04/26 07:19:36;;;;;;;13.20;9.30;;;11.40;1.00;;;;;;5123756;27;20559;-55
2022/04/26 07:22:03;;;;;;;11.70;9.90;;;11.80;1.00;;;;;;5103141;27;20192;-56
2022/04/26 07:24:33;;;;;;;10.80;9.40;;;11.80;1.00;;;;;;5124092;27;20479;-56
2022/04/26 07:26:59;;;;;;;12.73;9.93;;;11.90;1.00;;;;;;5126112;27;20454;-55
2022/04/26 07:29:24;;;;;;;14.57;11.03;;;12.20;1.00;;;;;;5123381;27;20451;-56
2022/04/26 07:31:50;;;;;;;16.17;10.67;;;12.50;1.00;;;;;;5125543;27;20454;-53
2022/04/26 07:34:21;;;;;;;12.47;9.90;;;12.60;1.00;;;;;;5125019;27;20270;-56
2022/04/26 07:36:59;;;;;;;11.43;10.23;;;12.80;1.00;;;;;;5119695;27;20276;-55
2022/04/26 07:39:25;;;;;;;12.93;11.40;;;13.00;1.00;;;;;;5122584;27;20436;-56
2022/04/26 07:41:50;;;;;;;13.43;11.57;;;12.90;1.00;;;;;;5122601;27;20443;-56
2022/04/26 07:44:17;;;;;;;13.03;11.40;;;12.80;1.00;;;;;;5122161;27;20471;-55
2022/04/26 07:46:44;;;;;;;13.20;10.60;;;13.00;1.00;;;;;;5121516;27;20282;-56
2022/04/26 07:49:11;;;;;;;12.83;11.53;;;13.10;1.00;;;;;;5120576;27;20455;-55
2022/04/26 07:51:37;;;;;;;14.20;11.83;;;13.20;1.00;;;;;;5117472;27;20505;-56
2022/04/26 07:54:03;;;;;;;16.20;13.50;;;13.10;1.00;;;;;;5118538;27;20473;-56
2022/04/26 07:56:28;;;;;;;14.80;12.87;;;13.60;1.00;;;;;;5105856;27;20181;-56
2022/04/26 07:58:54;;;;;;;13.87;12.33;;;13.60;1.00;;;;;;5122891;27;20185;-56
2022/04/26 08:01:20;;;;;;;13.50;12.10;;;13.80;1.00;;;;;;5121102;27;20197;-56
2022/04/26 08:03:46;;;;;;;19.30;14.23;;;14.00;1.00;;;;;;5120510;27;20783;-54
2022/04/26 08:06:11;;;;;;;15.60;14.03;;;12.20;1.00;;;;;;5127255;27;20209;-55
2022/04/26 08:08:39;;;;;;;15.10;13.27;;;14.30;1.00;;;;;;5122281;27;20178;-55
2022/04/26 08:11:05;;;;;;;16.47;14.23;;;14.40;1.00;;;;;;5120556;27;20291;-53
2022/04/26 08:13:30;;;;;;;16.00;13.73;;;14.40;1.00;;;;;;5125069;27;22118;-56
2022/04/26 08:15:56;;;;;;;15.40;13.80;;;14.40;1.00;;;;;;5121711;27;20269;-55
2022/04/26 08:18:22;;;;;;;20.27;15.83;;;14.60;1.00;;;;;;5117124;27;20257;-56
2022/04/26 08:20:48;;;;;;;17.87;15.50;;;14.90;1.00;;;;;;5124107;27;20177;-56
2022/04/26 08:23:13;;;;;;;19.43;15.57;;;15.10;1.00;;;;;;5104334;28;20460;-55
2022/04/26 08:28:25;;;;;;;19.03;16.10;;;15.40;1.00;;;;;;5121141;27;20274;-54
2022/04/26 08:30:51;;;;;;;15.80;14.23;;;15.50;1.00;;;;;;5121721;27;21094;-56
2022/04/26 08:33:17;;;;;;;17.43;13.40;;;15.50;1.00;;;;;;5125020;27;20494;-56
2022/04/26 08:35:42;;;;;;;16.47;14.37;;;15.60;1.00;;;;;;5109286;27;20191;-55
2022/04/26 08:38:08;;;;;;;15.33;13.40;;;15.70;1.00;;;;;;5123167;27;20796;-56
2022/04/26 08:40:35;;;;;;;16.77;14.20;;;17.10;1.00;;;;;;5119850;27;20201;-55
2022/04/26 08:43:02;;;;;;;14.00;12.57;;;16.00;1.00;;;;;;5123181;28;20770;-55
2022/04/26 08:45:27;;;;;;;14.27;12.77;;;16.20;1.00;;;;;;5123044;28;20861;-55
2022/04/26 08:53:23;;;;;;;14.10;12.57;;;16.50;1.00;;;;;;5120960;28;21014;-56
2022/04/26 08:55:52;;;;;;;15.03;11.43;;;16.40;1.00;;;;;;5123576;28;20866;-56
2022/04/26 08:58:18;;;;;;;16.30;12.03;;;16.40;1.00;;;;;;5121269;28;20423;-59
2022/04/26 09:01:05;;;;;;;13.60;12.20;;;16.40;1.00;;;;;;5113792;28;20439;-60
2022/04/26 09:03:38;;;;;;;11.97;10.70;;;17.00;1.00;;;;;;5112199;28;20991;-59
2022/04/26 09:06:12;;;;;;;11.43;10.23;;;17.10;1.00;;;;;;5122313;28;20423;-59
2022/04/26 09:08:39;;;;;;;11.90;10.70;;;17.10;1.00;;;;;;5122263;28;20505;-58
2022/04/26 09:11:24;;;;;;;13.50;10.17;;;17.20;1.00;;;;;;5117588;28;20435;-60
2022/04/26 09:13:50;;;;;;;11.23;10.17;;;16.80;1.00;;;;;;5131092;28;20488;-59
2022/04/26 09:16:18;;;;;;;12.50;11.30;;;16.90;1.00;;;;;;5130680;28;20438;-58
2022/04/26 09:18:58;;;;;;;12.03;10.53;;;17.00;1.00;;;;;;5131028;27;20250;-59
2022/04/26 09:21:29;;;;;;;13.17;11.40;;;16.90;1.00;;;;;;5118135;28;20859;-58
2022/04/26 09:24:07;;;;;;;12.10;10.67;;;16.70;1.00;;;;;;5115392;28;20444;-59
2022/04/26 09:26:38;;;;;;;10.80;9.70;;;16.80;1.00;;;;;;5130244;28;20434;-59
2022/04/26 09:29:05;;;;;;;10.40;9.40;;;17.10;1.00;;;;;;5115987;28;20432;-60
2022/04/26 09:31:34;;;;;;;11.30;9.80;;;17.50;1.00;;;;;;5129720;27;20431;-59
2022/04/26 09:34:04;;;;;;;9.77;8.77;;;17.90;1.00;;;;;;5134289;27;20458;-59
2022/04/26 09:36:36;;;;;;;10.80;9.60;;;18.30;1.00;;;;;;5134347;27;20406;-59
2022/04/26 09:39:04;;;;;;;10.60;9.50;;;18.30;1.00;;;;;;5134533;27;20426;-60
2022/04/26 09:41:32;;;;;;;9.20;8.30;;;17.80;1.00;;;;;;5128354;27;20414;-59
2022/04/26 09:44:09;;;;;;;8.10;7.33;;;17.30;1.00;;;;;;5117295;27;20467;-59
2022/04/26 09:46:43;;;;;;;7.93;7.13;;;16.70;1.00;;;;;;5125922;27;20427;-59
2022/04/26 09:49:11;;;;;;;9.07;8.23;;;16.80;1.00;;;;;;5114182;27;20955;-58
2022/04/26 09:51:37;;;;;;;8.43;7.63;;;16.70;1.00;;;;;;5113299;28;20987;-59
2022/04/26 09:54:03;;;;;;;8.67;7.83;;;16.50;1.00;;;;;;5127634;27;20493;-59
2022/04/26 09:56:31;;;;;;;8.10;7.30;;;16.70;1.00;;;;;;5133939;27;20430;-59
2022/04/26 09:58:58;;;;;;;6.80;6.17;;;17.20;1.00;;;;;;5115253;27;20465;-59
2022/04/26 10:01:46;;;;;;;7.27;6.57;;;17.80;1.00;;;;;;5133981;27;20442;-59
2022/04/26 10:04:20;;;;;;;6.53;5.93;;;18.40;1.00;;;;;;5133984;27;20775;-59
2022/04/26 10:06:49;;;;;;;5.40;4.90;;;19.30;1.00;;;;;;5133506;27;20441;-60
2022/04/26 10:09:15;;;;;;;5.30;4.63;;;19.90;1.00;;;;;;5133628;27;20795;-59
2022/04/26 10:11:41;;;;;;;6.10;5.60;;;20.10;1.00;;;;;;5133250;27;20534;-59
2022/04/26 10:14:09;;;;;;;5.40;4.90;;;20.10;1.00;;;;;;5133357;27;21054;-59
2022/04/26 10:16:36;;;;;;;6.20;5.60;;;20.50;1.00;;;;;;5133372;27;20642;-59
2022/04/26 10:19:07;;;;;;;6.13;5.53;;;20.90;1.00;;;;;;5133249;27;20768;-59
2022/04/26 10:21:52;;;;;;;5.50;5.00;;;21.00;1.00;;;;;;5133255;27;20911;-59
2022/04/26 10:24:20;;;;;;;5.00;4.40;;;21.30;1.00;;;;;;5132786;27;20513;-59
2022/04/26 10:26:47;;;;;;;5.10;4.40;;;21.50;1.00;;;;;;5124532;27;20411;-59
2022/04/26 10:29:15;;;;;;;5.27;4.43;;;21.70;1.00;;;;;;5133086;27;20787;-59
2022/04/26 10:31:47;;;;;;;4.83;4.43;;;21.80;1.00;;;;;;5132690;27;20509;-59
2022/04/26 10:34:29;;;;;;;5.53;4.60;;;22.00;1.00;;;;;;5122966;27;20994;-59
2022/04/26 10:37:06;;;;;;;6.73;4.47;;;22.00;1.00;;;;;;5132996;27;20427;-58
2022/04/26 10:39:37;;;;;;;4.43;4.03;;;22.00;1.00;;;;;;5133049;27;20580;-59
2022/04/26 10:42:27;;;;;;;4.30;3.90;;;22.10;1.00;;;;;;5132116;27;20452;-59
2022/04/26 10:45:06;;;;;;;4.20;3.80;;;22.40;1.00;;;;;;5114999;27;20446;-60
2022/04/26 10:47:33;;;;;;;4.00;3.70;;;22.00;1.00;;;;;;5133024;27;21219;-59
2022/04/26 10:49:59;;;;;;;4.20;3.90;;;21.90;1.00;;;;;;5132798;27;20514;-59
2022/04/26 10:52:40;;;;;;;6.93;4.57;;;21.70;1.00;;;;;;5133166;27;20431;-59
2022/04/26 10:55:11;;;;;;;4.50;4.20;;;21.60;1.00;;;;;;5132971;27;20550;-59
2022/04/26 10:57:42;;;;;;;5.50;5.10;;;21.60;1.00;;;;;;5132805;27;21011;-58
2022/04/26 11:00:14;;;;;;;4.53;4.13;;;21.60;1.00;;;;;;5123159;27;20403;-59
2022/04/26 11:02:42;;;;;;;4.80;4.40;;;21.70;1.00;;;;;;5112074;28;20920;-59
2022/04/26 11:05:13;;;;;;;4.70;4.27;;;21.80;1.00;;;;;;5128711;27;20417;-59
2022/04/26 11:07:48;;;;;;;4.60;4.20;;;21.50;1.00;;;;;;5123636;27;20418;-59
2022/04/26 11:10:15;;;;;;;4.77;4.37;;;21.20;1.00;;;;;;5111955;28;20457;-59
2022/04/26 11:12:41;;;;;;;4.83;4.43;;;20.70;1.00;;;;;;5112069;27;21109;-59
2022/04/26 11:15:10;;;;;;;4.47;4.07;;;20.40;1.00;;;;;;5112062;27;20493;-59
2022/04/26 11:17:37;;;;;;;4.63;4.20;;;;;;;;;;5097750;27;20202;-59
2022/04/26 11:20:12;;;;;;;4.77;4.33;;;20.10;1.00;;;;;;5132170;27;20427;-59
2022/04/26 11:22:50;;;;;;;4.83;4.10;;;19.40;1.00;;;;;;5132167;27;20402;-59
2022/04/26 11:28:45;;;;;;;4.97;4.57;;;;;;;;;;5085872;28;20794;-59
2022/04/26 11:31:10;;;;;;;6.23;4.50;;;18.80;1.00;;;;;;5117712;27;20450;-59
2022/04/26 11:33:49;;;;;;;7.73;4.90;;;19.20;1.00;;;;;;5131911;27;20461;-58
2022/04/26 11:36:14;;;;;;;5.53;5.03;;;19.10;1.00;;;;;;5132099;27;20188;-59
2022/04/26 11:38:40;;;;;;;5.87;5.30;;;;;;;;;;5130198;27;20431;-59
2022/04/26 11:41:08;;;;;;;5.40;4.90;;;19.80;1.00;;;;;;5111500;28;20235;-60
2022/04/26 11:43:35;;;;;;;6.10;5.60;;;19.40;1.00;;;;;;5111076;28;20459;-59
2022/04/26 11:46:05;;;;;;;4.27;3.97;;;19.20;1.00;;;;;;5111617;28;20432;-57
2022/04/26 11:48:33;;;;;;;4.53;4.10;;;19.50;1.00;;;;;;5102301;27;20801;-54
2022/04/26 11:51:00;;;;;;;4.17;3.77;;;19.40;1.00;;;;;;5116083;27;20440;-56
2022/04/26 11:53:28;;;;;;;5.00;4.47;;;19.00;1.00;;;;;;5124461;27;20520;-56
2022/04/26 11:55:56;;;;;;;4.87;4.37;;;18.60;1.00;;;;;;5121152;27;20431;-55
2022/04/26 11:58:32;;;;;;;5.77;5.00;;;18.20;1.00;;;;;;5121837;27;20467;-56
2022/04/26 12:01:18;;;;;;;5.40;4.90;;;18.20;1.00;;;;;;5124450;27;20398;-56
2022/04/26 12:03:52;;;;;;;4.73;4.07;;;18.20;1.00;;;;;;5118077;27;20438;-56
2022/04/26 12:06:32;;;;;;;5.73;5.23;;;18.40;1.00;;;;;;5131019;27;20536;-57
2022/04/26 12:09:00;;;;;;;5.30;4.80;;;18.30;1.00;;;;;;5131129;27;20560;-57
2022/04/26 12:11:37;;;;;;;3.83;3.53;;;18.90;1.00;;;;;;5131235;27;20777;-57
2022/04/26 12:14:11;;;;;;;4.70;4.17;;;18.00;1.00;;;;;;5131677;27;20469;-57
2022/04/26 12:16:48;;;;;;;4.83;4.33;;;18.80;1.00;;;;;;5131106;27;20420;-56
2022/04/26 12:19:15;;;;;;;4.90;4.50;;;18.80;1.00;;;;;;5114319;27;20442;-58
2022/04/26 12:21:51;;;;;;;6.50;4.90;;;18.50;1.00;;;;;;5131124;27;20430;-57
2022/04/26 12:24:21;;;;;;;6.10;5.43;;;18.60;1.00;;;;;;5131331;27;20602;-56
2022/04/26 12:26:53;;;;;;;5.10;4.60;;;18.60;1.00;;;;;;5130985;27;20437;-59
2022/04/26 12:29:19;;;;;;;5.30;4.90;;;18.40;1.00;;;;;;5131209;27;21028;-57
2022/04/26 12:31:47;;;;;;;5.80;5.10;;;18.50;1.00;;;;;;5131079;27;20525;-57
2022/04/26 12:34:22;;;;;;;7.20;4.20;;;18.50;1.00;;;;;;5131219;27;20464;-58
2022/04/26 12:36:56;;;;;;;5.00;4.50;;;18.70;1.00;;;;;;5131143;27;20545;-58
2022/04/26 12:39:24;;;;;;;4.90;4.50;;;18.80;1.00;;;;;;5131094;27;20743;-57
2022/04/26 12:41:51;;;;;;;5.07;4.67;;;18.90;1.00;;;;;;5130894;27;20410;-58
2022/04/26 12:44:18;;;;;;;5.87;5.30;;;18.80;1.00;;;;;;5130971;27;20482;-57
2022/04/26 12:52:49;;;;;;;4.70;4.30;;;18.00;1.00;;;;;;5131319;28;20543;-57
2022/04/26 12:55:28;;;;;;;6.90;4.73;;;18.40;1.00;;;;;;5130281;28;20471;-57
2022/04/26 12:57:55;;;;;;;4.60;4.30;;;18.40;1.00;;;;;;5130745;28;20504;-57
2022/04/26 13:00:23;;;;;;;3.70;3.40;;;18.70;1.00;;;;;;5130739;28;20435;-58
2022/04/26 13:02:51;;;;;;;4.50;4.10;;;18.80;1.00;;;;;;5110477;28;20497;-57
2022/04/26 13:05:17;;;;;;;4.57;4.13;;;18.50;1.00;;;;;;5109992;28;20508;-58
2022/04/26 13:07:46;;;;;;;4.97;4.50;;;18.20;1.00;;;;;;5114538;28;20474;-57
2022/04/26 13:10:12;;;;;;;5.37;4.87;;;17.90;1.00;;;;;;5114112;28;20526;-57
2022/04/26 13:12:38;;;;;;;5.10;4.60;;;17.80;1.00;;;;;;5114501;28;20492;-58
2022/04/26 13:15:05;;;;;;;6.30;4.10;;;17.70;1.00;;;;;;5114155;28;20434;-58
2022/04/26 13:17:30;;;;;;;4.60;4.20;;;17.70;1.00;;;;;;5115803;27;20182;-57
2022/04/26 13:19:56;;;;;;;5.20;4.00;;;18.10;1.00;;;;;;5135670;27;20437;-59
2022/04/26 13:22:22;;;;;;;4.50;4.03;;;18.40;1.00;;;;;;5134937;27;20182;-58
2022/04/26 13:24:49;;;;;;;3.50;3.20;;;18.40;1.00;;;;;;5134788;27;20189;-58
2022/04/26 13:27:16;;;;;;;4.27;3.87;;;18.20;1.00;;;;;;5134913;27;20430;-58
2022/04/26 13:29:41;;;;;;;4.03;3.50;;;18.10;1.00;;;;;;5134502;27;20951;-58
2022/04/26 13:32:07;;;;;;;3.80;3.50;;;17.90;1.00;;;;;;5134716;27;20435;-58
2022/04/26 13:34:33;;;;;;;4.30;3.90;;;18.00;1.00;;;;;;5134424;27;20315;-58
2022/04/26 13:36:59;;;;;;;3.67;3.37;;;18.00;1.00;;;;;;5134405;27;20507;-59
2022/04/26 13:39:24;;;;;;;3.97;3.67;;;17.90;1.00;;;;;;5134366;27;20185;-59
2022/04/26 13:41:50;;;;;;;5.30;4.17;;;17.70;1.00;;;;;;5134249;27;20185;-60
2022/04/26 13:44:19;;;;;;;4.37;3.97;;;17.80;1.00;;;;;;5133562;27;20209;-61
2022/04/26 13:46:45;;;;;;;3.60;3.30;;;18.00;1.00;;;;;;5134283;27;20181;-59
2022/04/26 13:49:11;;;;;;;4.37;3.77;;;18.10;1.00;;;;;;5134283;27;20424;-59
2022/04/26 13:51:36;;;;;;;3.60;3.27;;;18.30;1.00;;;;;;5134066;27;20426;-59
2022/04/26 13:54:02;;;;;;;3.60;3.33;;;18.40;1.00;;;;;;5133821;27;20205;-59
2022/04/26 13:56:28;;;;;;;3.70;3.40;;;18.40;1.00;;;;;;5133915;27;20182;-58
2022/04/26 13:58:53;;;;;;;3.30;3.00;;;18.30;1.00;;;;;;5117786;27;20639;-59
2022/04/26 14:01:19;;;;;;;3.43;3.13;;;18.50;1.00;;;;;;5113501;28;20665;-59
2022/04/26 14:03:45;;;;;;;3.30;3.00;;;18.80;1.00;;;;;;5113201;28;20180;-58
2022/04/26 14:06:12;;;;;;;5.33;4.10;;;19.10;1.00;;;;;;5113774;28;20182;-59
2022/04/26 14:08:38;;;;;;;3.57;3.27;;;19.20;1.00;;;;;;5113374;28;20419;-58
2022/04/26 14:11:04;;;;;;;5.03;4.33;;;19.20;1.00;;;;;;5113242;28;20423;-59
2022/04/26 14:21:46;;;;;;;5.30;4.07;;;19.40;1.00;;;;;;5112826;27;20228;-60
2022/04/26 14:21:49;;;;;;;4.47;3.83;;;19.20;1.00;;;;;;5125795;27;20426;-58
2022/04/26 14:24:14;;;;;;;3.53;3.30;;;19.20;1.00;;;;;;5113435;27;20512;-59
2022/04/26 14:26:44;;;;;;;4.00;3.60;;;19.10;1.00;;;;;;5133414;27;21011;-59
2022/04/26 14:29:10;;;;;;;3.90;3.53;;;19.10;1.00;;;;;;5133581;27;20651;-59
2022/04/26 14:31:36;;;;;;;4.30;3.90;;;18.90;1.00;;;;;;5133136;27;20491;-60
2022/04/26 14:34:02;;;;;;;5.10;4.70;;;18.80;1.00;;;;;;5133294;27;20923;-58
2022/04/26 14:36:28;;;;;;;4.67;4.27;;;18.70;1.00;;;;;;5132805;27;20522;-59
2022/04/26 14:38:54;;;;;;;4.60;4.00;;;18.70;1.00;;;;;;5130232;27;20525;-59
2022/04/26 14:41:20;;;;;;;4.57;4.27;;;18.60;1.00;;;;;;5117308;27;20190;-59
2022/04/26 14:43:45;;;;;;;4.90;4.10;;;18.50;1.00;;;;;;5130583;27;20548;-58
2022/04/26 14:46:11;;;;;;;4.63;3.90;;;18.50;1.00;;;;;;5133008;27;20545;-58
2022/04/26 14:48:38;;;;;;;3.83;3.53;;;18.30;1.00;;;;;;5131434;27;20197;-61
2022/04/26 14:51:06;;;;;;;3.90;3.60;;;18.30;1.00;;;;;;5129604;27;20174;-62
2022/04/26 14:53:32;;;;;;;4.80;4.40;;;18.30;1.00;;;;;;5120734;27;20561;-57
2022/04/26 14:55:59;;;;;;;4.37;3.93;;;18.10;1.00;;;;;;5126479;27;20439;-57
2022/04/26 14:58:25;;;;;;;4.70;4.30;;;18.10;1.00;;;;;;5099328;27;20177;-57
2022/04/26 15:00:51;;;;;;;4.03;3.73;;;17.90;1.00;;;;;;5121855;27;20413;-57
2022/04/26 15:03:17;;;;;;;5.27;4.67;;;17.80;1.00;;;;;;5132771;27;20426;-58
2022/04/26 15:05:43;;;;;;;5.20;4.70;;;17.80;1.00;;;;;;5128336;27;21069;-59
2022/04/26 15:10:53;;;;;;;4.60;4.20;;;17.70;1.00;;;;;;5125997;27;20664;-57
2022/04/26 15:18:50;;;;;;;4.80;4.17;;;17.60;1.00;;;;;;5116304;27;20433;-58
2022/04/26 15:21:18;;;;;;;4.50;4.10;;;17.50;1.00;;;;;;5115375;27;20444;-56
2022/04/26 15:23:44;;;;;;;4.87;4.43;;;17.50;1.00;;;;;;5115268;27;20190;-58
2022/04/26 15:26:11;;;;;;;5.23;3.87;;;17.50;1.00;;;;;;5113566;27;20452;-56
2022/04/26 15:28:38;;;;;;;5.23;4.30;;;17.50;1.00;;;;;;5117742;27;20259;-58
2022/04/26 15:31:06;;;;;;;4.70;4.30;;;17.40;1.00;;;;;;5111564;27;20447;-56
2022/04/26 15:33:32;;;;;;;4.60;4.20;;;17.40;1.00;;;;;;5113382;27;20515;-57
2022/04/26 15:35:58;;;;;;;4.80;4.40;;;17.50;1.00;;;;;;5117101;27;20558;-58
2022/04/26 15:38:27;;;;;;;7.87;3.77;;;17.40;1.00;;;;;;5116173;27;20190;-57
2022/04/26 15:40:53;;;;;;;4.80;4.20;;;17.40;1.00;;;;;;5125779;27;20781;-57
2022/04/26 15:43:19;;;;;;;4.90;4.40;;;17.50;1.00;;;;;;5115548;27;20862;-57
2022/04/26 15:45:45;;;;;;;4.47;4.07;;;17.40;1.00;;;;;;5114613;27;20451;-57
2022/04/26 15:48:12;;;;;;;4.57;4.17;;;17.40;1.00;;;;;;5113721;27;20181;-57
2022/04/26 15:50:40;;;;;;;7.60;5.50;;;17.40;1.00;;;;;;5097263;27;20560;-58
2022/04/26 15:53:06;;;;;;;10.10;5.53;;;17.40;1.00;;;;;;5119757;27;20903;-58
2022/04/26 15:55:32;;;;;;;4.20;3.80;;;;;;;;;;5116512;27;20513;-59
2022/04/26 15:57:57;;;;;;;6.13;4.47;;;17.40;1.00;;;;;;5120624;27;20505;-58
2022/04/26 16:00:23;;;;;;;4.90;3.90;;;;;;;;;;5116488;27;20534;-59
2022/04/26 16:02:51;;;;;;;4.03;3.63;;;17.40;1.00;;;;;;5120453;27;20184;-58
2022/04/26 16:05:17;;;;;;;4.17;3.77;;;17.50;1.00;;;;;;5115035;27;20501;-58
2022/04/26 16:07:43;;;;;;;4.07;3.67;;;17.50;1.00;;;;;;5121532;27;20431;-58
2022/04/26 16:21:06;;;;;;;3.90;2.87;;;17.50;1.00;;;;;;5118055;27;20449;-59
2022/04/26 16:23:31;;;;;;;5.57;2.87;;;17.60;1.00;;;;;;5105752;27;20470;-59
2022/04/26 16:26:02;;;;;;;3.20;2.90;;;17.60;1.00;;;;;;5114476;27;20216;-59
2022/04/26 16:28:30;;;;;;;4.03;3.73;;;;;;;;;;5127738;27;20181;-59
2022/04/26 16:30:56;;;;;;;3.37;3.10;;;17.70;1.00;;;;;;5119851;27;20471;-58
2022/04/26 16:33:22;;;;;;;3.63;3.33;;;17.70;1.00;;;;;;5114939;27;20860;-58
2022/04/26 16:35:48;;;;;;;4.10;3.70;;;17.80;1.00;;;;;;5111149;27;20182;-59
2022/04/26 16:38:13;;;;;;;5.70;4.00;;;18.00;1.00;;;;;;5119951;27;20204;-58
2022/04/26 16:40:39;;;;;;;4.00;3.60;;;18.90;1.00;;;;;;5119738;27;20823;-58
2022/04/26 16:43:05;;;;;;;4.40;4.00;;;19.50;1.00;;;;;;5115811;27;20611;-59
2022/04/26 16:45:32;;;;;;;4.07;3.60;;;19.60;1.00;;;;;;5114777;28;20829;-58
2022/04/26 16:47:58;;;;;;;3.70;3.40;;;19.50;1.00;;;;;;5121369;28;20475;-59
2022/04/26 16:50:23;;;;;;;5.90;4.27;;;19.30;1.00;;;;;;5129722;28;20860;-58
2022/04/26 16:52:50;;;;;;;4.23;3.93;;;19.10;1.00;;;;;;5121948;28;20194;-59
2022/04/26 16:55:16;;;;;;;4.83;4.00;;;18.90;1.00;;;;;;5110786;28;20551;-60
2022/04/26 16:57:41;;;;;;;3.63;3.33;;;18.80;1.00;;;;;;5124115;28;20472;-58
2022/04/26 17:00:08;;;;;;;4.40;4.00;;;18.50;1.00;;;;;;5115199;28;20295;-59
2022/04/26 17:02:33;;;;;;;5.83;4.17;;;18.40;1.00;;;;;;5120949;28;20208;-58
2022/04/26 17:04:59;;;;;;;4.70;4.30;;;18.30;1.00;;;;;;5130598;28;20435;-59
2022/04/26 17:07:25;;;;;;;5.00;4.60;;;18.20;1.00;;;;;;5128332;28;20193;-59
2022/04/26 17:09:52;;;;;;;4.50;4.10;;;18.20;1.00;;;;;;5123665;28;20244;-59
2022/04/26 17:12:18;;;;;;;4.63;4.23;;;18.10;1.00;;;;;;5124628;28;20554;-59
2022/04/26 17:14:44;;;;;;;4.60;4.20;;;18.10;1.00;;;;;;5109709;28;21110;-59
2022/04/26 17:17:13;;;;;;;4.20;3.80;;;18.10;1.00;;;;;;5128920;28;20471;-60
2022/04/26 17:19:39;;;;;;;5.23;3.90;;;18.00;1.00;;;;;;5130233;28;20185;-58
2022/04/26 17:22:04;;;;;;;5.10;3.90;;;17.90;1.00;;;;;;5119576;28;20451;-58